createdAt,value
2022-09-11T00:04:59.141Z,5.20
2022-09-11T00:10:02.312Z,1.42
2022-09-11T00:15:07.974Z,5.95
2022-09-11T00:20:11.528Z,5.97
2022-09-11T00:25:14.613Z,4.07
2022-09-11T00:30:19.430Z,3.58
2022-09-11T00:35:22.608Z,2.38
2022-09-11T00:40:26.391Z,3.53
2022-09-11T00:45:32.331Z,3.67
2022-09-11T00:50:35.841Z,3.03
2022-09-11T00:55:42.193Z,1.85
2022-09-11T01:00:47.000Z,6.07
2022-09-11T01:05:50.781Z,1.40
2022-09-11T01:11:05.583Z,7.38
2022-09-11T01:16:20.643Z,4.78
2022-09-11T01:22:03.235Z,4.25
2022-09-11T01:27:42.024Z,5.05
2022-09-11T01:33:03.887Z,5.90
2022-09-11T01:38:14.871Z,3.35
2022-09-11T01:43:26.789Z,3.15
2022-09-11T01:48:33.039Z,2.97
2022-09-11T01:53:41.371Z,2.53
2022-09-11T01:58:48.082Z,5.57
2022-09-11T02:03:55.790Z,3.60
2022-09-11T02:09:01.728Z,2.78
2022-09-11T02:14:10.890Z,2.80
2022-09-11T02:19:16.685Z,3.60
2022-09-11T02:24:21.201Z,3.50
2022-09-11T02:29:26.734Z,5.22
2022-09-11T02:34:34.296Z,3.35
2022-09-11T02:39:57.145Z,2.60
2022-09-11T02:45:13.488Z,3.85
2022-09-11T02:50:28.209Z,5.15
2022-09-11T02:55:41.707Z,4.10
2022-09-11T03:00:48.141Z,4.88
2022-09-11T03:05:51.313Z,3.53
2022-09-11T03:10:56.145Z,6.70
2022-09-11T03:16:01.886Z,4.70
2022-09-11T03:21:05.887Z,4.80
2022-09-11T03:26:09.140Z,3.65
2022-09-11T03:31:13.998Z,2.80
2022-09-11T03:36:17.257Z,2.60
2022-09-11T03:41:20.866Z,4.55
2022-09-11T03:46:25.654Z,6.93
2022-09-11T03:51:31.302Z,5.65
2022-09-11T03:56:34.519Z,1.40
2022-09-11T04:01:39.192Z,3.65
2022-09-11T04:06:42.304Z,3.83
2022-09-11T04:11:45.434Z,3.50
2022-09-11T04:16:50.221Z,2.05
2022-09-11T04:21:53.277Z,1.80
2022-09-11T04:27:00.596Z,5.20
2022-09-11T04:32:06.038Z,3.95
2022-09-11T04:37:09.454Z,4.10
2022-09-11T04:42:12.539Z,2.55
2022-09-11T04:47:18.610Z,3.75
2022-09-11T04:52:21.897Z,3.03
2022-09-11T04:57:25.199Z,3.17
2022-09-11T05:02:29.890Z,4.15
2022-09-11T05:07:33.206Z,2.72
2022-09-11T05:12:36.297Z,3.88
2022-09-11T05:17:40.864Z,3.05
2022-09-11T05:22:44.209Z,4.70
2022-09-11T05:27:47.599Z,3.22
2022-09-11T05:32:55.684Z,3.38
2022-09-11T05:37:58.850Z,6.35
2022-09-11T05:43:02.894Z,2.85
2022-09-11T05:48:07.674Z,3.17
2022-09-11T05:53:10.797Z,3.95
2022-09-11T05:58:13.951Z,2.67
2022-09-11T06:03:19.883Z,3.55
2022-09-11T06:08:26.993Z,3.45
2022-09-11T06:13:31.924Z,1.58
2022-09-11T06:18:36.353Z,3.10
2022-09-11T06:23:40.227Z,1.95
2022-09-11T06:28:43.686Z,3.05
2022-09-11T06:33:48.933Z,4.00
2022-09-11T06:38:54.961Z,2.20
2022-09-11T06:43:58.162Z,1.00
2022-09-11T06:49:02.846Z,2.58
2022-09-11T06:54:06.112Z,2.30
2022-09-11T06:59:10.198Z,4.97
2022-09-11T07:04:14.633Z,2.33
2022-09-11T07:09:21.561Z,0.93
2022-09-11T07:14:29.596Z,1.17
2022-09-11T07:19:34.058Z,0.80
2022-09-11T07:24:37.299Z,1.88
2022-09-11T07:29:40.366Z,4.75
2022-09-11T07:34:45.264Z,2.13
2022-09-11T07:39:48.472Z,2.03
2022-09-11T07:44:51.861Z,1.40
2022-09-11T07:49:57.376Z,4.43
2022-09-11T07:55:01.458Z,3.13
2022-09-11T08:00:06.780Z,2.95
2022-09-11T08:05:12.529Z,1.60
2022-09-11T08:10:27.210Z,1.55
2022-09-11T08:15:31.246Z,1.95
2022-09-11T08:20:35.661Z,0.50
2022-09-11T08:25:39.262Z,1.77
2022-09-11T08:30:42.376Z,0.93
2022-09-11T08:35:46.916Z,2.38
2022-09-11T08:40:50.164Z,3.00
2022-09-11T08:45:57.156Z,1.45
2022-09-11T08:51:01.791Z,1.45
2022-09-11T08:56:10.369Z,1.38
2022-09-11T09:01:24.891Z,0.88
2022-09-11T09:06:45.208Z,1.85
2022-09-11T09:11:56.028Z,3.28
2022-09-11T09:17:03.101Z,1.10
2022-09-11T09:22:18.881Z,1.02
2022-09-11T09:27:28.370Z,1.13
2022-09-11T09:32:35.077Z,2.58
2022-09-11T09:37:40.179Z,1.98
2022-09-11T09:43:05.388Z,2.78
2022-09-11T09:48:11.671Z,2.15
2022-09-11T09:53:30.517Z,1.00
2022-09-11T09:58:37.764Z,1.23
2022-09-11T10:03:40.948Z,1.63
2022-09-11T10:08:45.547Z,3.05
2022-09-11T10:13:55.279Z,5.95
2022-09-11T10:18:58.444Z,2.67
2022-09-11T10:29:50.435Z,2.75
2022-09-11T10:34:54.581Z,3.80
2022-09-11T10:40:08.642Z,2.17
2022-09-11T10:45:23.493Z,3.00
2022-09-11T10:50:28.903Z,1.65
2022-09-11T10:55:40.631Z,3.33
2022-09-11T11:00:45.094Z,2.97
2022-09-11T11:06:00.722Z,3.60
2022-09-11T11:11:24.367Z,2.33
2022-09-11T11:16:39.662Z,3.45
2022-09-11T11:21:53.124Z,3.10
2022-09-11T11:27:11.182Z,3.65
2022-09-11T11:32:49.635Z,2.30
2022-09-11T11:38:01.702Z,6.07
2022-09-11T11:43:11.183Z,5.47
2022-09-11T11:48:25.541Z,2.42
2022-09-11T11:53:33.967Z,4.50
2022-09-11T11:58:48.459Z,2.42
2022-09-11T12:03:59.690Z,3.35
2022-09-11T12:09:04.072Z,3.67
2022-09-11T12:14:26.280Z,2.67
2022-09-11T12:19:29.390Z,2.20
2022-09-11T12:24:59.331Z,5.20
2022-09-11T12:30:21.276Z,2.00
2022-09-11T12:35:34.932Z,2.10
2022-09-11T12:40:48.059Z,2.35
2022-09-11T12:45:52.674Z,2.33
2022-09-11T12:50:58.051Z,5.22
2022-09-11T12:56:04.724Z,3.90
2022-09-11T13:01:21.390Z,1.80
2022-09-11T13:06:27.617Z,3.28
2022-09-11T13:11:52.852Z,3.25
2022-09-11T13:16:58.937Z,5.20
2022-09-11T13:22:02.043Z,8.10
2022-09-11T13:27:08.792Z,4.78
2022-09-11T13:32:17.992Z,4.78
2022-09-11T13:37:32.370Z,3.47
2022-09-11T13:42:37.986Z,2.30
2022-09-11T13:47:43.274Z,2.72
2022-09-11T13:52:47.740Z,1.92
2022-09-11T13:57:58.724Z,2.38
2022-09-11T14:03:03.417Z,3.15
2022-09-11T14:08:24.510Z,3.80
2022-09-11T14:13:34.191Z,2.53
2022-09-11T14:18:43.351Z,2.15
2022-09-11T14:23:49.079Z,4.30
2022-09-11T14:29:03.946Z,3.15
2022-09-11T14:34:20.851Z,2.35
2022-09-11T14:39:30.487Z,4.05
2022-09-11T14:44:37.865Z,2.47
2022-09-11T14:49:42.302Z,2.88
2022-09-11T14:54:46.578Z,2.25
2022-09-11T14:59:50.611Z,6.65
2022-09-11T15:04:56.955Z,4.63
2022-09-11T15:10:00.139Z,2.05
2022-09-11T15:15:04.020Z,1.98
2022-09-11T15:20:11.632Z,2.33
2022-09-11T15:25:14.890Z,3.70
2022-09-11T15:30:18.553Z,3.38
2022-09-11T15:40:56.779Z,2.92
2022-09-11T15:46:00.077Z,3.40
2022-09-11T15:51:06.838Z,4.15
2022-09-11T15:56:12.914Z,4.00
2022-09-11T16:01:20.056Z,4.75
2022-09-11T16:06:26.162Z,2.97
2022-09-11T16:11:31.313Z,2.60
2022-09-11T16:16:34.583Z,5.05
2022-09-11T16:21:39.109Z,8.82
2022-09-11T16:26:44.134Z,5.20
2022-09-11T16:31:47.594Z,2.80
2022-09-11T16:36:52.941Z,3.03
2022-09-11T16:41:56.068Z,3.30
2022-09-11T16:46:59.451Z,9.38
2022-09-11T16:52:05.188Z,6.68
2022-09-11T16:57:08.440Z,12.32
2022-09-11T17:02:12.232Z,11.75
2022-09-11T17:07:16.804Z,8.88
2022-09-11T17:12:21.355Z,14.43
2022-09-11T17:17:24.541Z,8.00
2022-09-11T17:22:29.778Z,8.23
2022-09-11T17:27:33.056Z,8.35
2022-09-11T17:32:38.895Z,7.60
2022-09-11T17:37:45.883Z,4.63
2022-09-11T17:42:49.011Z,5.28
2022-09-11T17:47:57.302Z,3.80
2022-09-11T17:53:02.983Z,5.82
2022-09-11T17:58:06.237Z,9.52
2022-09-11T18:03:09.400Z,5.30
2022-09-11T18:08:16.082Z,5.40
2022-09-11T18:13:22.162Z,5.53
2022-09-11T18:18:26.696Z,4.55
2022-09-11T18:23:31.175Z,5.25
2022-09-11T18:28:35.955Z,5.05
2022-09-11T18:33:39.041Z,5.00
2022-09-11T18:38:43.609Z,5.90
2022-09-11T18:43:46.951Z,6.28
2022-09-11T18:48:51.178Z,4.82
2022-09-11T18:53:56.134Z,7.53
2022-09-11T18:59:00.298Z,6.22
2022-09-11T19:04:07.535Z,7.65
2022-09-11T19:09:12.987Z,7.70
2022-09-11T19:14:16.101Z,8.40
2022-09-11T19:19:19.921Z,7.45
2022-09-11T19:24:28.292Z,6.03
2022-09-11T19:29:32.169Z,6.47
2022-09-11T19:34:38.880Z,7.63
2022-09-11T19:39:43.929Z,7.07
2022-09-11T19:44:47.468Z,8.05
2022-09-11T19:49:51.390Z,8.20
2022-09-11T19:54:55.917Z,9.23
2022-09-11T20:00:00.391Z,7.30
2022-09-11T20:05:03.917Z,6.72
2022-09-11T20:10:10.642Z,8.10
2022-09-11T20:15:13.901Z,10.02
2022-09-11T20:20:17.201Z,7.60
2022-09-11T20:25:26.066Z,6.18
2022-09-11T20:30:32.700Z,5.95
2022-09-11T20:35:36.170Z,5.03
2022-09-11T20:40:44.046Z,6.30
2022-09-11T20:45:48.176Z,9.90
2022-09-11T20:50:52.280Z,6.35
2022-09-11T20:56:01.994Z,5.82
2022-09-11T21:01:05.920Z,6.38
2022-09-11T21:06:09.881Z,7.72
2022-09-11T21:11:14.423Z,6.97
2022-09-11T21:16:17.883Z,10.77
2022-09-11T21:21:22.019Z,6.93
2022-09-11T21:26:28.856Z,8.15
2022-09-11T21:31:32.107Z,9.45
2022-09-11T21:36:36.771Z,8.18
2022-09-11T21:41:41.268Z,10.05
2022-09-11T21:46:44.335Z,10.25
2022-09-11T21:51:47.504Z,9.23
2022-09-11T21:56:51.919Z,8.60
2022-09-11T22:01:55.033Z,10.88
2022-09-11T22:06:58.119Z,9.10
2022-09-11T22:12:03.085Z,10.43
2022-09-11T22:17:06.298Z,9.90
2022-09-11T22:22:09.411Z,10.13
2022-09-11T22:27:14.085Z,8.98
2022-09-11T22:32:17.260Z,10.00
2022-09-11T22:37:21.394Z,11.75
2022-09-11T22:42:25.924Z,7.05
2022-09-11T22:47:28.986Z,8.93
2022-09-11T22:52:32.120Z,8.40
2022-09-11T22:57:37.986Z,7.30
2022-09-11T23:02:41.191Z,10.95
2022-09-11T23:07:44.938Z,7.60
2022-09-11T23:12:49.538Z,9.18
2022-09-11T23:17:52.952Z,8.10
2022-09-11T23:22:56.314Z,9.88
2022-09-11T23:28:00.826Z,8.43
2022-09-11T23:33:03.954Z,8.13
2022-09-11T23:38:07.152Z,9.88
2022-09-11T23:43:11.581Z,8.82
2022-09-11T23:48:14.680Z,8.57
2022-09-11T23:53:17.855Z,11.75
2022-09-11T23:58:22.541Z,15.73
